createdAt,value
2023-05-10T00:01:28.818Z,86.55
2023-05-10T00:03:55.219Z,86.54
2023-05-10T00:06:21.918Z,86.71
2023-05-10T00:08:48.157Z,86.64
2023-05-10T00:11:14.457Z,86.84
2023-05-10T00:13:41.116Z,86.64
2023-05-10T00:16:07.455Z,86.24
2023-05-10T00:18:33.839Z,87.45
2023-05-10T00:21:00.356Z,87.26
2023-05-10T00:23:26.647Z,87.53
2023-05-10T00:25:52.969Z,87.93
2023-05-10T00:28:19.318Z,88.21
2023-05-10T00:30:45.641Z,87.65
2023-05-10T00:33:12.493Z,87.81
2023-05-10T00:35:39.140Z,88.42
2023-05-10T00:38:05.449Z,88.70
2023-05-10T00:40:31.818Z,88.78
2023-05-10T00:42:59.153Z,88.90
2023-05-10T00:45:25.821Z,89.46
2023-05-10T00:47:55.914Z,88.70
2023-05-10T00:50:24.176Z,89.27
2023-05-10T00:52:51.177Z,89.47
2023-05-10T00:55:17.549Z,89.77
2023-05-10T00:57:44.211Z,89.36
2023-05-10T01:00:11.187Z,89.54
2023-05-10T01:02:37.801Z,89.62
2023-05-10T01:05:04.709Z,90.86
2023-05-10T01:07:31.160Z,89.79
2023-05-10T01:09:58.440Z,89.90
2023-05-10T01:12:24.831Z,89.98
2023-05-10T01:14:51.199Z,89.82
2023-05-10T01:17:17.749Z,89.79
2023-05-10T01:19:44.071Z,90.41
2023-05-10T01:22:19.163Z,89.53
2023-05-10T01:25:16.450Z,90.28
2023-05-10T01:28:04.940Z,89.88
2023-05-10T01:30:37.230Z,89.29
2023-05-10T01:33:15.619Z,89.84
2023-05-10T01:36:16.795Z,89.88
2023-05-10T01:38:51.343Z,89.50
2023-05-10T01:41:20.947Z,89.56
2023-05-10T01:43:56.263Z,90.55
2023-05-10T01:46:34.202Z,90.65
2023-05-10T01:49:04.315Z,91.05
2023-05-10T01:51:39.968Z,91.11
2023-05-10T01:54:08.967Z,90.69
2023-05-10T01:56:36.581Z,90.27
2023-05-10T01:59:09.308Z,90.17
2023-05-10T02:01:37.650Z,90.41
2023-05-10T02:04:05.545Z,90.03
2023-05-10T02:06:33.963Z,89.72
2023-05-10T02:09:02.308Z,89.86
2023-05-10T02:11:30.012Z,89.86
2023-05-10T02:13:58.153Z,89.92
2023-05-10T02:16:27.322Z,89.90
2023-05-10T02:18:55.132Z,89.95
2023-05-10T02:21:22.536Z,89.48
2023-05-10T02:23:52.868Z,89.47
2023-05-10T02:26:23.047Z,89.67
2023-05-10T02:28:50.308Z,89.88
2023-05-10T02:31:17.822Z,89.59
2023-05-10T02:33:46.291Z,90.11
2023-05-10T02:36:13.683Z,90.68
2023-05-10T02:38:41.419Z,90.48
2023-05-10T02:41:10.135Z,90.11
2023-05-10T02:43:38.510Z,89.72
2023-05-10T02:46:04.996Z,90.15
2023-05-10T02:48:31.441Z,90.17
2023-05-10T02:51:04.940Z,89.87
2023-05-10T02:53:34.032Z,89.73
2023-05-10T02:56:05.780Z,89.95
2023-05-10T02:58:32.275Z,90.39
2023-05-10T03:00:58.582Z,90.03
2023-05-10T03:03:24.926Z,90.60
2023-05-10T03:05:51.217Z,90.76
2023-05-10T03:08:17.570Z,90.58
2023-05-10T03:10:56.644Z,89.91
2023-05-10T03:13:45.050Z,89.99
2023-05-10T03:16:17.941Z,89.79
2023-05-10T03:19:07.154Z,90.86
2023-05-10T03:21:33.967Z,90.20
2023-05-10T03:24:09.869Z,90.63
2023-05-10T03:26:37.974Z,91.00
2023-05-10T03:29:06.351Z,91.08
2023-05-10T03:31:33.217Z,90.84
2023-05-10T03:33:59.505Z,90.24
2023-05-10T03:36:25.785Z,90.25
2023-05-10T03:38:52.112Z,90.07
2023-05-10T03:41:18.416Z,90.69
2023-05-10T03:43:44.730Z,89.96
2023-05-10T03:46:11.375Z,90.02
2023-05-10T03:48:37.669Z,90.11
2023-05-10T03:51:04.148Z,89.83
2023-05-10T03:53:30.424Z,90.21
2023-05-10T03:55:56.749Z,89.88
2023-05-10T03:58:23.137Z,90.22
2023-05-10T04:00:49.468Z,90.01
2023-05-10T04:03:15.897Z,90.14
2023-05-10T04:05:42.239Z,90.26
2023-05-10T04:08:08.560Z,90.06
2023-05-10T04:10:34.894Z,90.22
2023-05-10T04:13:01.258Z,89.60
2023-05-10T04:15:27.584Z,90.03
2023-05-10T04:17:54.545Z,90.14
2023-05-10T04:20:21.004Z,89.83
2023-05-10T04:22:47.343Z,90.05
2023-05-10T04:25:13.682Z,89.75
2023-05-10T04:27:40.072Z,89.43
2023-05-10T04:30:07.628Z,89.89
2023-05-10T04:32:33.962Z,89.76
2023-05-10T04:35:00.236Z,89.89
2023-05-10T04:37:26.535Z,89.75
2023-05-10T04:39:52.906Z,90.50
2023-05-10T04:42:19.197Z,90.80
2023-05-10T04:44:45.521Z,91.06
2023-05-10T04:47:13.317Z,90.95
2023-05-10T04:49:39.588Z,90.34
2023-05-10T04:52:05.863Z,89.97
2023-05-10T04:54:32.239Z,90.04
2023-05-10T04:56:58.518Z,89.53
2023-05-10T04:59:24.842Z,89.68
2023-05-10T05:01:51.197Z,89.57
2023-05-10T05:04:17.725Z,90.12
2023-05-10T05:06:44.063Z,89.77
2023-05-10T05:09:11.112Z,89.38
2023-05-10T05:11:37.460Z,88.25
2023-05-10T05:14:03.938Z,88.15
2023-05-10T05:16:31.827Z,88.42
2023-05-10T05:18:58.206Z,88.39
2023-05-10T05:21:25.989Z,88.83
2023-05-10T05:23:52.258Z,88.26
2023-05-10T05:26:18.604Z,88.28
2023-05-10T05:28:44.928Z,88.88
2023-05-10T05:31:11.352Z,88.09
2023-05-10T05:33:38.140Z,88.00
2023-05-10T05:36:05.818Z,87.75
2023-05-10T05:38:32.372Z,88.06
2023-05-10T05:40:58.758Z,87.42
2023-05-10T05:43:25.605Z,87.98
2023-05-10T05:45:54.557Z,87.40
2023-05-10T05:48:21.195Z,87.19
2023-05-10T05:50:47.547Z,86.74
2023-05-10T05:53:13.830Z,86.97
2023-05-10T05:55:40.162Z,86.11
2023-05-10T05:58:06.632Z,86.23
2023-05-10T06:00:33.049Z,86.14
2023-05-10T06:02:59.452Z,85.25
2023-05-10T06:05:25.840Z,83.38
2023-05-10T06:07:52.294Z,84.44
2023-05-10T06:10:21.344Z,84.25
2023-05-10T06:12:50.648Z,84.43
2023-05-10T06:15:18.974Z,85.60
2023-05-10T06:17:45.626Z,85.14
2023-05-10T06:20:15.808Z,84.66
2023-05-10T06:22:44.959Z,84.97
2023-05-10T06:25:12.214Z,84.50
2023-05-10T06:27:38.614Z,83.92
2023-05-10T06:30:12.769Z,83.04
2023-05-10T06:32:39.927Z,83.61
2023-05-10T06:35:06.845Z,83.00
2023-05-10T06:37:33.116Z,83.05
2023-05-10T06:39:59.420Z,83.19
2023-05-10T06:42:26.435Z,82.81
2023-05-10T06:44:52.859Z,82.75
2023-05-10T06:47:19.491Z,83.33
2023-05-10T06:49:45.912Z,83.98
2023-05-10T06:52:12.307Z,83.15
2023-05-10T06:54:38.789Z,82.66
2023-05-10T06:57:10.810Z,81.71
2023-05-10T06:59:42.656Z,82.06
2023-05-10T07:02:09.061Z,81.84
2023-05-10T07:04:35.409Z,81.82
2023-05-10T07:07:01.748Z,81.37
2023-05-10T07:09:28.020Z,81.49
2023-05-10T07:11:54.406Z,82.14
2023-05-10T07:14:20.689Z,81.04
2023-05-10T07:16:47.087Z,81.97
2023-05-10T07:19:13.408Z,81.78
2023-05-10T07:21:41.339Z,81.79
2023-05-10T07:24:07.639Z,82.53
2023-05-10T07:26:34.029Z,82.67
2023-05-10T07:29:00.367Z,83.07
2023-05-10T07:31:26.695Z,81.75
2023-05-10T07:33:53.056Z,81.56
2023-05-10T07:36:19.378Z,80.88
2023-05-10T07:38:45.785Z,81.06
2023-05-10T07:41:12.917Z,79.71
2023-05-10T07:43:39.214Z,79.57
2023-05-10T07:46:06.203Z,79.52
2023-05-10T07:48:32.627Z,77.71
2023-05-10T07:50:58.948Z,76.59
2023-05-10T07:53:27.140Z,76.32
2023-05-10T07:55:59.767Z,77.90
2023-05-10T07:58:26.216Z,76.60
2023-05-10T08:00:52.484Z,76.34
2023-05-10T08:03:18.881Z,77.05
2023-05-10T08:05:45.204Z,76.67
2023-05-10T08:08:11.646Z,76.58
2023-05-10T08:10:38.092Z,76.69
2023-05-10T08:13:04.409Z,76.72
2023-05-10T08:15:30.704Z,76.84
2023-05-10T08:17:57.031Z,76.27
2023-05-10T08:20:23.444Z,75.31
2023-05-10T08:22:51.910Z,77.69
2023-05-10T08:25:18.696Z,76.96
2023-05-10T08:27:45.671Z,78.52
2023-05-10T08:30:12.981Z,78.78
2023-05-10T08:32:39.309Z,79.41
2023-05-10T08:35:06.169Z,80.48
2023-05-10T08:37:33.850Z,82.67
2023-05-10T08:40:00.236Z,82.06
2023-05-10T08:42:31.121Z,82.73
2023-05-10T08:44:58.619Z,82.75
2023-05-10T08:47:26.217Z,83.76
2023-05-10T08:49:53.483Z,84.09
2023-05-10T08:52:20.749Z,84.32
2023-05-10T08:54:47.632Z,84.85
2023-05-10T08:57:14.060Z,84.00
2023-05-10T08:59:40.792Z,84.19
2023-05-10T09:02:08.207Z,82.84
2023-05-10T09:04:34.660Z,82.93
2023-05-10T09:07:02.019Z,82.84
2023-05-10T09:09:28.803Z,82.53
2023-05-10T09:11:55.476Z,80.72
2023-05-10T09:14:24.134Z,81.63
2023-05-10T09:16:50.508Z,82.33
2023-05-10T09:19:16.829Z,81.60
2023-05-10T09:21:43.170Z,77.80
2023-05-10T09:24:10.067Z,76.46
2023-05-10T09:26:46.279Z,75.52
2023-05-10T09:29:13.432Z,69.97
2023-05-10T09:31:47.265Z,68.55
2023-05-10T09:34:18.019Z,68.31
2023-05-10T09:36:58.513Z,67.02
2023-05-10T09:39:35.769Z,66.94
2023-05-10T09:42:11.438Z,67.91
2023-05-10T09:44:38.945Z,70.70
2023-05-10T09:47:05.531Z,72.32
2023-05-10T09:49:31.998Z,74.29
2023-05-10T09:52:02.483Z,74.26
2023-05-10T09:54:29.006Z,74.59
2023-05-10T09:56:55.525Z,75.52
2023-05-10T09:59:22.079Z,76.90
2023-05-10T10:01:52.225Z,78.31
2023-05-10T10:04:18.648Z,77.33
2023-05-10T10:06:45.569Z,76.85
2023-05-10T10:09:12.079Z,77.09
2023-05-10T10:11:39.202Z,77.25
2023-05-10T10:14:06.374Z,77.29
2023-05-10T10:16:33.595Z,76.33
2023-05-10T10:19:00.075Z,76.42
2023-05-10T10:21:26.516Z,75.18
2023-05-10T10:23:53.926Z,75.22
2023-05-10T10:26:21.908Z,75.68
2023-05-10T10:29:25.649Z,76.85
2023-05-10T10:32:02.451Z,74.13
2023-05-10T10:34:32.575Z,73.81
2023-05-10T10:37:05.553Z,72.38
2023-05-10T10:39:32.134Z,70.42
2023-05-10T10:41:59.617Z,70.99
2023-05-10T10:44:34.744Z,72.08
2023-05-10T10:47:12.642Z,72.17
2023-05-10T10:49:52.173Z,72.33
2023-05-10T10:52:24.764Z,69.92
2023-05-10T10:54:52.502Z,65.43
2023-05-10T10:57:20.690Z,67.44
2023-05-10T10:59:47.281Z,67.86
2023-05-10T11:02:54.875Z,66.22
2023-05-10T11:05:37.793Z,65.90
2023-05-10T11:08:28.715Z,65.64
2023-05-10T11:11:01.198Z,66.04
2023-05-10T11:13:43.470Z,67.40
2023-05-10T11:16:26.241Z,68.31
2023-05-10T11:19:08.625Z,68.86
2023-05-10T11:21:52.238Z,68.26
2023-05-10T11:24:21.312Z,68.38
2023-05-10T11:26:52.096Z,68.30
2023-05-10T11:29:18.558Z,68.06
2023-05-10T11:31:46.207Z,68.47
2023-05-10T11:34:13.546Z,68.93
2023-05-10T11:36:39.905Z,68.71
2023-05-10T11:39:06.793Z,66.74
2023-05-10T11:41:33.413Z,64.33
2023-05-10T11:43:59.901Z,63.45
2023-05-10T11:46:29.409Z,60.48
2023-05-10T11:49:02.863Z,57.12
2023-05-10T11:51:29.359Z,56.27
2023-05-10T11:53:56.472Z,54.24
2023-05-10T11:56:24.280Z,54.86
2023-05-10T11:58:56.686Z,52.83
2023-05-10T12:01:24.188Z,52.05
2023-05-10T12:03:52.485Z,52.04
2023-05-10T12:06:22.284Z,50.66
2023-05-10T12:08:53.330Z,51.61
2023-05-10T12:11:20.233Z,49.93
2023-05-10T12:13:50.791Z,51.26
2023-05-10T12:16:21.981Z,48.42
2023-05-10T12:18:56.674Z,50.41
2023-05-10T12:21:23.468Z,51.73
2023-05-10T12:23:53.535Z,53.08
2023-05-10T12:26:23.838Z,53.87
2023-05-10T12:28:50.387Z,54.84
2023-05-10T12:31:16.794Z,55.40
2023-05-10T12:33:44.587Z,55.77
2023-05-10T12:36:12.835Z,55.04
2023-05-10T12:38:43.087Z,53.08
2023-05-10T12:41:11.809Z,50.94
2023-05-10T12:43:38.725Z,49.03
2023-05-10T12:46:06.675Z,48.79
2023-05-10T12:48:34.814Z,47.78
2023-05-10T12:51:02.407Z,47.97
2023-05-10T12:53:28.760Z,46.91
2023-05-10T12:55:55.320Z,47.02
2023-05-10T13:00:54.530Z,47.16
2023-05-10T13:03:20.925Z,47.54
2023-05-10T13:05:47.251Z,48.02
2023-05-10T13:08:13.534Z,48.27
2023-05-10T13:10:39.962Z,49.56
2023-05-10T13:13:06.291Z,50.07
2023-05-10T13:15:32.517Z,50.83
2023-05-10T13:17:58.917Z,51.58
2023-05-10T13:20:26.385Z,52.32
2023-05-10T13:22:52.690Z,51.28
2023-05-10T13:25:18.947Z,52.02
2023-05-10T13:27:45.400Z,52.99
2023-05-10T13:30:14.726Z,54.56
2023-05-10T13:32:41.141Z,54.38
2023-05-10T13:35:07.596Z,54.47
2023-05-10T13:37:36.437Z,54.59
2023-05-10T13:40:02.873Z,51.60
2023-05-10T13:42:29.362Z,49.64
2023-05-10T13:44:55.712Z,49.49
2023-05-10T13:47:23.206Z,50.03
2023-05-10T13:49:49.673Z,47.11
2023-05-10T13:52:16.040Z,47.57
2023-05-10T13:54:42.458Z,46.70
2023-05-10T13:57:08.846Z,46.79
2023-05-10T13:59:35.082Z,48.01
2023-05-10T14:02:04.780Z,49.07
2023-05-10T14:04:31.364Z,50.45
2023-05-10T14:06:57.692Z,51.27
2023-05-10T14:09:23.989Z,52.04
2023-05-10T14:11:50.266Z,51.82
2023-05-10T14:14:16.576Z,51.92
2023-05-10T14:16:44.703Z,52.48
2023-05-10T14:19:12.087Z,53.84
2023-05-10T14:21:38.988Z,55.61
2023-05-10T14:24:05.819Z,54.90
2023-05-10T14:26:32.325Z,54.37
2023-05-10T14:28:58.672Z,53.55
2023-05-10T14:31:26.508Z,52.79
2023-05-10T14:33:52.828Z,52.50
2023-05-10T14:36:19.289Z,51.62
2023-05-10T14:38:45.711Z,50.70
2023-05-10T14:41:15.503Z,50.13
2023-05-10T14:43:42.218Z,50.44
2023-05-10T14:46:09.578Z,49.49
2023-05-10T14:48:36.233Z,49.58
2023-05-10T14:51:02.818Z,48.63
2023-05-10T14:53:29.095Z,50.04
2023-05-10T14:55:55.710Z,48.91
2023-05-10T14:58:22.433Z,49.93
2023-05-10T15:00:48.973Z,48.37
2023-05-10T15:03:16.479Z,49.02
2023-05-10T15:05:43.518Z,47.92
2023-05-10T15:08:10.247Z,47.95
2023-05-10T15:10:37.657Z,49.39
2023-05-10T15:13:05.241Z,48.51
2023-05-10T15:15:32.099Z,47.95
2023-05-10T15:17:58.509Z,47.59
2023-05-10T15:20:24.920Z,47.56
2023-05-10T15:22:51.706Z,45.83
2023-05-10T15:25:18.306Z,45.75
2023-05-10T15:27:44.772Z,45.61
2023-05-10T15:30:11.455Z,45.88
2023-05-10T15:32:38.250Z,45.57
2023-05-10T15:35:04.991Z,47.31
2023-05-10T15:37:31.308Z,46.49
2023-05-10T15:40:04.140Z,47.20
2023-05-10T15:42:31.538Z,46.96
2023-05-10T15:44:58.080Z,46.83
2023-05-10T15:47:24.799Z,47.90
2023-05-10T15:49:51.064Z,47.00
2023-05-10T15:52:18.652Z,48.10
2023-05-10T15:54:44.942Z,47.74
2023-05-10T15:57:11.756Z,47.85
2023-05-10T15:59:38.084Z,48.22
2023-05-10T16:02:04.483Z,48.26
2023-05-10T16:04:30.836Z,47.73
2023-05-10T16:06:57.121Z,48.58
2023-05-10T16:09:23.420Z,49.29
2023-05-10T16:11:49.788Z,49.63
2023-05-10T16:14:16.330Z,49.43
2023-05-10T16:16:43.412Z,48.92
2023-05-10T16:19:09.823Z,48.71
2023-05-10T16:21:36.318Z,47.41
2023-05-10T16:24:03.231Z,47.89
2023-05-10T16:26:29.561Z,47.34
2023-05-10T16:28:55.961Z,48.00
2023-05-10T16:31:22.465Z,46.41
2023-05-10T16:33:49.887Z,45.89
2023-05-10T16:36:16.184Z,45.68
2023-05-10T16:38:42.515Z,47.35
2023-05-10T16:41:08.768Z,45.56
2023-05-10T16:43:35.726Z,45.75
2023-05-10T16:46:02.384Z,46.17
2023-05-10T16:48:28.734Z,47.18
2023-05-10T16:50:55.056Z,47.59
2023-05-10T16:53:21.520Z,48.34
2023-05-10T16:55:47.927Z,47.02
2023-05-10T16:58:14.282Z,47.34
2023-05-10T17:00:40.733Z,45.95
2023-05-10T17:03:07.687Z,46.20
2023-05-10T17:05:34.060Z,45.88
2023-05-10T17:08:00.829Z,45.88
2023-05-10T17:10:27.200Z,45.59
2023-05-10T17:12:53.668Z,46.51
2023-05-10T17:15:20.641Z,46.15
2023-05-10T17:17:47.723Z,47.65
2023-05-10T17:20:14.067Z,47.60
2023-05-10T17:22:40.430Z,47.88
2023-05-10T17:25:07.076Z,48.44
2023-05-10T17:27:33.543Z,48.20
2023-05-10T17:29:59.850Z,48.60
2023-05-10T17:32:26.344Z,47.42
2023-05-10T17:34:52.854Z,48.50
2023-05-10T17:37:19.312Z,48.65
2023-05-10T17:39:45.612Z,49.56
2023-05-10T17:42:12.629Z,48.56
2023-05-10T17:44:38.987Z,49.20
2023-05-10T17:47:06.267Z,48.26
2023-05-10T17:49:32.634Z,49.33
2023-05-10T17:51:58.921Z,49.10
2023-05-10T17:54:25.251Z,48.03
2023-05-10T17:56:51.631Z,49.09
2023-05-10T17:59:18.102Z,49.77
2023-05-10T18:01:44.516Z,49.68
2023-05-10T18:04:10.949Z,50.23
2023-05-10T18:06:37.587Z,49.01
2023-05-10T18:09:07.074Z,49.24
2023-05-10T18:11:34.952Z,49.23
2023-05-10T18:14:01.272Z,50.39
2023-05-10T18:16:27.605Z,50.02
2023-05-10T18:18:53.969Z,50.44
2023-05-10T18:21:20.349Z,50.09
2023-05-10T18:23:46.901Z,50.12
2023-05-10T18:26:13.471Z,50.58
2023-05-10T18:28:39.778Z,51.04
2023-05-10T18:31:06.097Z,51.38
2023-05-10T18:33:32.431Z,52.28
2023-05-10T18:35:58.757Z,50.99
2023-05-10T18:38:25.310Z,52.34
2023-05-10T18:40:51.628Z,51.96
2023-05-10T18:43:18.120Z,53.29
2023-05-10T18:45:44.370Z,53.59
2023-05-10T18:48:10.743Z,53.22
2023-05-10T18:50:37.131Z,55.38
2023-05-10T18:53:03.458Z,55.92
2023-05-10T18:55:29.849Z,54.00
2023-05-10T18:57:56.189Z,56.22
2023-05-10T19:00:22.604Z,55.82
2023-05-10T19:02:48.908Z,56.90
2023-05-10T19:05:15.986Z,57.77
2023-05-10T19:07:43.854Z,58.30
2023-05-10T19:10:12.683Z,60.27
2023-05-10T19:12:41.175Z,60.22
2023-05-10T19:15:08.332Z,60.40
2023-05-10T19:17:36.752Z,61.63
2023-05-10T19:20:04.540Z,60.13
2023-05-10T19:25:00.283Z,61.95
2023-05-10T19:27:26.650Z,63.24
2023-05-10T19:29:52.970Z,63.92
2023-05-10T19:32:19.295Z,64.64
2023-05-10T19:34:45.613Z,66.52
2023-05-10T19:37:12.065Z,68.03
2023-05-10T19:39:38.353Z,68.79
2023-05-10T19:42:05.376Z,70.48
2023-05-10T19:44:31.828Z,71.92
2023-05-10T19:46:58.860Z,72.85
2023-05-10T19:49:25.304Z,73.56
2023-05-10T19:51:51.603Z,72.43
2023-05-10T19:54:17.937Z,73.41
2023-05-10T19:56:44.233Z,73.96
2023-05-10T19:59:10.631Z,74.14
2023-05-10T20:01:37.201Z,75.01
2023-05-10T20:04:03.692Z,75.49
2023-05-10T20:06:30.074Z,75.38
2023-05-10T20:08:56.360Z,69.88
2023-05-10T20:11:22.690Z,67.64
2023-05-10T20:13:49.013Z,66.36
2023-05-10T20:16:15.313Z,65.88
2023-05-10T20:18:41.828Z,64.26
2023-05-10T20:21:08.167Z,65.49
2023-05-10T20:23:34.459Z,62.53
2023-05-10T20:26:00.763Z,63.13
2023-05-10T20:28:28.216Z,62.50
2023-05-10T20:30:55.691Z,62.54
2023-05-10T20:33:22.628Z,62.67
2023-05-10T20:35:50.139Z,62.95
2023-05-10T20:38:17.984Z,62.54
2023-05-10T20:40:44.724Z,62.60
2023-05-10T20:43:10.992Z,64.64
2023-05-10T20:45:37.861Z,66.35
2023-05-10T20:48:04.852Z,66.38
2023-05-10T20:50:31.233Z,64.80
2023-05-10T20:52:57.598Z,65.37
2023-05-10T20:55:23.874Z,64.39
2023-05-10T20:57:51.371Z,65.95
2023-05-10T21:00:18.176Z,65.29
2023-05-10T21:02:45.916Z,66.06
2023-05-10T21:05:12.372Z,68.21
2023-05-10T21:07:39.372Z,66.32
2023-05-10T21:10:10.342Z,69.33
2023-05-10T21:12:37.110Z,69.15
2023-05-10T21:15:04.085Z,67.41
2023-05-10T21:17:30.837Z,67.28
2023-05-10T21:19:57.310Z,67.77
2023-05-10T21:22:23.650Z,68.21
2023-05-10T21:24:49.993Z,67.68
2023-05-10T21:27:16.502Z,67.60
2023-05-10T21:29:42.841Z,66.21
2023-05-10T21:32:09.523Z,66.56
2023-05-10T21:34:36.027Z,65.94
2023-05-10T21:37:02.359Z,67.08
2023-05-10T21:39:28.645Z,66.46
2023-05-10T21:41:54.957Z,68.21
2023-05-10T21:44:21.268Z,68.92
2023-05-10T21:46:47.708Z,68.27
2023-05-10T21:49:14.034Z,66.94
2023-05-10T21:51:40.327Z,68.22
2023-05-10T21:54:06.760Z,67.31
2023-05-10T21:56:33.042Z,69.55
2023-05-10T21:58:59.329Z,67.74
2023-05-10T22:01:27.224Z,68.58
2023-05-10T22:03:53.555Z,67.79
2023-05-10T22:06:19.899Z,67.73
2023-05-10T22:08:46.180Z,67.64
2023-05-10T22:11:12.510Z,67.09
2023-05-10T22:13:38.809Z,66.59
2023-05-10T22:16:05.166Z,67.12
2023-05-10T22:18:31.451Z,66.19
2023-05-10T22:20:57.789Z,66.53
2023-05-10T22:23:24.157Z,66.30
2023-05-10T22:25:50.454Z,67.63
2023-05-10T22:28:16.746Z,68.86
2023-05-10T22:30:43.460Z,69.35
2023-05-10T22:33:09.880Z,68.92
2023-05-10T22:35:36.220Z,67.27
2023-05-10T22:38:02.515Z,67.84
2023-05-10T22:40:28.819Z,67.98
2023-05-10T22:42:55.297Z,68.87
2023-05-10T22:45:21.604Z,68.43
2023-05-10T22:47:48.118Z,68.14
2023-05-10T22:50:14.473Z,68.33
2023-05-10T22:52:40.830Z,69.90
2023-05-10T22:55:07.515Z,69.58
2023-05-10T22:57:34.240Z,68.59
2023-05-10T23:00:00.759Z,69.52
2023-05-10T23:02:27.169Z,67.72
2023-05-10T23:04:53.564Z,69.30
2023-05-10T23:07:19.895Z,68.67
2023-05-10T23:09:46.183Z,68.25
2023-05-10T23:12:12.499Z,68.34
2023-05-10T23:14:38.776Z,68.36
2023-05-10T23:17:05.357Z,69.33
2023-05-10T23:19:31.622Z,69.40
2023-05-10T23:21:59.250Z,67.59
2023-05-10T23:24:26.197Z,69.10
2023-05-10T23:26:52.476Z,69.25
2023-05-10T23:29:18.881Z,68.15
2023-05-10T23:31:48.958Z,67.70
2023-05-10T23:34:15.305Z,67.75
2023-05-10T23:36:41.579Z,69.97
2023-05-10T23:39:08.179Z,69.16
2023-05-10T23:41:34.596Z,70.31
2023-05-10T23:44:09.803Z,70.42
2023-05-10T23:46:36.079Z,70.78
2023-05-10T23:49:02.397Z,71.16
2023-05-10T23:51:28.661Z,71.67
2023-05-10T23:53:55.017Z,69.36
2023-05-10T23:56:22.019Z,70.53
2023-05-10T23:58:48.407Z,71.19
